createdAt,value
2022-08-03T00:01:37.410Z,19.70
2022-08-03T00:04:08.129Z,19.70
2022-08-03T00:06:37.299Z,19.60
2022-08-03T00:09:08.178Z,19.60
2022-08-03T00:11:35.821Z,19.60
2022-08-03T00:14:05.599Z,19.50
2022-08-03T00:16:32.881Z,19.50
2022-08-03T00:19:00.824Z,19.40
2022-08-03T00:21:29.553Z,19.40
2022-08-03T00:23:56.675Z,19.30
2022-08-03T00:26:28.853Z,19.30
2022-08-03T00:28:55.887Z,19.20
2022-08-03T00:31:35.226Z,19.10
2022-08-03T00:34:10.043Z,19.00
2022-08-03T00:36:39.590Z,19.00
2022-08-03T00:39:06.621Z,18.90
2022-08-03T00:41:33.542Z,18.80
2022-08-03T00:44:01.570Z,18.70
2022-08-03T00:46:28.605Z,18.70
2022-08-03T00:49:04.911Z,18.60
2022-08-03T00:51:37.725Z,18.50
2022-08-03T00:54:08.663Z,18.50
2022-08-03T00:56:37.174Z,18.40
2022-08-03T00:59:04.844Z,18.40
2022-08-03T01:01:32.513Z,18.30
2022-08-03T01:04:00.058Z,18.30
2022-08-03T01:06:43.865Z,18.30
2022-08-03T01:10:04.090Z,18.30
2022-08-03T01:12:53.819Z,18.30
2022-08-03T01:15:48.398Z,18.30
2022-08-03T01:18:26.042Z,18.20
2022-08-03T01:20:57.626Z,18.10
2022-08-03T01:24:05.856Z,18.10
2022-08-03T01:27:03.305Z,18.00
2022-08-03T01:29:52.745Z,18.00
2022-08-03T01:33:01.851Z,18.00
2022-08-03T01:35:40.927Z,17.90
2022-08-03T01:38:18.649Z,17.80
2022-08-03T01:40:47.928Z,17.80
2022-08-03T01:43:58.901Z,17.80
2022-08-03T01:46:07.781Z,17.70
2022-08-03T01:48:38.505Z,17.70
2022-08-03T01:51:08.319Z,17.60
2022-08-03T01:53:37.699Z,17.60
2022-08-03T01:56:06.825Z,17.60
2022-08-03T01:58:36.819Z,17.60
2022-08-03T02:01:13.605Z,17.60
2022-08-03T02:04:00.071Z,17.60
2022-08-03T02:07:02.231Z,17.60
2022-08-03T02:09:21.369Z,17.60
2022-08-03T02:11:51.507Z,17.50
2022-08-03T02:14:20.380Z,17.50
2022-08-03T02:16:49.456Z,17.50
2022-08-03T02:19:18.392Z,17.40
2022-08-03T02:21:57.139Z,17.40
2022-08-03T02:24:29.541Z,17.40
2022-08-03T02:26:57.501Z,17.40
2022-08-03T02:29:39.103Z,17.40
2022-08-03T02:32:15.056Z,17.40
2022-08-03T02:34:46.665Z,17.50
2022-08-03T02:37:15.192Z,17.40
2022-08-03T02:40:06.207Z,17.40
2022-08-03T02:42:45.539Z,17.50
2022-08-03T02:45:16.917Z,17.40
2022-08-03T02:47:53.972Z,17.40
2022-08-03T02:50:24.181Z,17.40
2022-08-03T02:52:53.609Z,17.40
2022-08-03T02:55:23.226Z,17.20
2022-08-03T02:57:51.268Z,17.20
2022-08-03T03:00:27.628Z,17.00
2022-08-03T03:03:00.916Z,17.00
2022-08-03T03:05:52.318Z,16.90
2022-08-03T03:08:22.925Z,17.00
2022-08-03T03:10:57.198Z,17.00
2022-08-03T03:13:24.883Z,17.00
2022-08-03T03:15:53.023Z,17.00
2022-08-03T03:18:22.744Z,17.00
2022-08-03T03:20:52.696Z,17.00
2022-08-03T03:23:22.675Z,17.00
2022-08-03T03:25:50.371Z,17.00
2022-08-03T03:28:17.671Z,17.00
2022-08-03T03:30:45.199Z,17.00
2022-08-03T03:33:21.673Z,17.00
2022-08-03T03:35:49.559Z,16.90
2022-08-03T03:38:16.587Z,16.90
2022-08-03T03:40:44.359Z,16.90
2022-08-03T03:43:13.008Z,16.80
2022-08-03T03:45:51.643Z,16.80
2022-08-03T03:48:19.342Z,16.80
2022-08-03T03:50:46.989Z,16.80
2022-08-03T03:53:14.842Z,16.70
2022-08-03T03:55:59.209Z,16.70
2022-08-03T03:58:32.091Z,16.70
2022-08-03T04:01:00.191Z,16.70
2022-08-03T04:03:27.762Z,16.60
2022-08-03T04:06:13.539Z,16.60
2022-08-03T04:08:59.512Z,16.60
2022-08-03T04:11:39.637Z,16.60
2022-08-03T04:14:30.928Z,16.60
2022-08-03T04:17:06.161Z,16.60
2022-08-03T04:19:38.890Z,16.70
2022-08-03T04:22:10.855Z,16.70
2022-08-03T04:24:51.442Z,16.70
2022-08-03T04:27:25.855Z,16.60
2022-08-03T04:29:55.564Z,16.60
2022-08-03T04:32:26.317Z,16.60
2022-08-03T04:34:53.822Z,16.60
2022-08-03T04:37:43.225Z,16.70
2022-08-03T04:40:30.630Z,16.70
2022-08-03T04:43:00.034Z,16.70
2022-08-03T04:45:31.890Z,16.80
2022-08-03T04:47:59.680Z,16.80
2022-08-03T04:50:37.015Z,16.80
2022-08-03T04:53:07.172Z,16.90
2022-08-03T04:55:35.403Z,16.90
2022-08-03T04:58:04.390Z,17.00
2022-08-03T05:00:31.363Z,17.10
2022-08-03T05:02:58.616Z,17.10
2022-08-03T05:05:25.667Z,17.20
2022-08-03T05:08:05.280Z,17.30
2022-08-03T05:10:38.099Z,17.30
2022-08-03T05:13:05.423Z,17.40
2022-08-03T05:15:32.363Z,17.50
2022-08-03T05:17:59.287Z,17.60
2022-08-03T05:20:26.464Z,17.70
2022-08-03T05:22:53.439Z,17.80
2022-08-03T05:25:23.356Z,17.90
2022-08-03T05:27:54.106Z,18.00
2022-08-03T05:30:31.499Z,18.20
2022-08-03T05:33:04.616Z,18.20
2022-08-03T05:35:57.365Z,18.30
2022-08-03T05:38:24.121Z,18.50
2022-08-03T05:41:22.765Z,18.70
2022-08-03T05:43:47.055Z,18.80
2022-08-03T05:46:35.744Z,19.00
2022-08-03T05:49:13.735Z,19.20
2022-08-03T05:51:40.773Z,19.30
2022-08-03T05:54:07.710Z,19.40
2022-08-03T05:56:34.672Z,19.60
2022-08-03T05:59:11.560Z,19.70
2022-08-03T06:01:48.931Z,19.80
2022-08-03T06:04:15.863Z,19.90
2022-08-03T06:06:43.442Z,20.10
2022-08-03T06:09:10.788Z,20.20
2022-08-03T06:11:39.096Z,20.30
2022-08-03T06:14:06.500Z,20.40
2022-08-03T06:16:33.719Z,20.50
2022-08-03T06:19:00.737Z,20.60
2022-08-03T06:21:27.941Z,20.70
2022-08-03T06:23:55.697Z,20.80
2022-08-03T06:26:25.380Z,20.90
2022-08-03T06:28:54.282Z,21.00
2022-08-03T06:31:32.838Z,21.10
2022-08-03T06:34:32.733Z,21.20
2022-08-03T06:36:52.429Z,21.40
2022-08-03T06:39:20.187Z,21.40
2022-08-03T06:41:47.211Z,21.50
2022-08-03T06:44:14.298Z,21.60
2022-08-03T06:46:42.306Z,21.70
2022-08-03T06:49:09.411Z,21.80
2022-08-03T06:52:04.147Z,21.90
2022-08-03T06:54:24.558Z,22.10
2022-08-03T06:56:51.936Z,22.20
2022-08-03T07:00:08.499Z,22.60
2022-08-03T07:02:09.759Z,23.20
2022-08-03T07:04:37.064Z,24.20
2022-08-03T07:07:04.022Z,24.80
2022-08-03T07:09:31.073Z,25.00
2022-08-03T07:11:58.832Z,25.20
2022-08-03T07:14:25.896Z,25.10
2022-08-03T07:16:52.833Z,24.80
2022-08-03T07:19:19.760Z,24.30
2022-08-03T07:21:47.301Z,24.20
2022-08-03T07:24:14.583Z,24.30
2022-08-03T07:26:41.657Z,24.80
2022-08-03T07:29:15.143Z,25.40
2022-08-03T07:31:42.576Z,25.20
2022-08-03T07:34:09.724Z,24.70
2022-08-03T07:36:36.717Z,24.20
2022-08-03T07:39:16.519Z,24.10
2022-08-03T07:41:45.604Z,24.20
2022-08-03T07:44:12.689Z,24.50
2022-08-03T07:46:39.634Z,24.60
2022-08-03T07:49:06.803Z,24.70
2022-08-03T07:51:33.799Z,25.10
2022-08-03T07:54:01.327Z,25.00
2022-08-03T07:56:28.918Z,24.70
2022-08-03T07:58:56.591Z,24.40
2022-08-03T08:01:24.501Z,24.40
2022-08-03T08:03:52.699Z,24.50
2022-08-03T08:06:20.335Z,24.60
2022-08-03T08:08:47.519Z,24.90
2022-08-03T08:11:14.860Z,25.60
2022-08-03T08:13:41.831Z,26.60
2022-08-03T08:16:08.759Z,27.10
2022-08-03T08:18:35.764Z,27.70
2022-08-03T08:21:03.496Z,28.20
2022-08-03T08:23:42.273Z,28.30
2022-08-03T08:26:10.954Z,28.10
2022-08-03T08:28:37.952Z,28.30
2022-08-03T08:31:05.161Z,28.30
2022-08-03T08:34:01.337Z,28.20
2022-08-03T08:36:21.510Z,28.00
2022-08-03T08:38:48.705Z,27.80
2022-08-03T08:41:16.433Z,27.60
2022-08-03T08:43:44.084Z,27.50
2022-08-03T08:46:23.355Z,27.70
2022-08-03T08:48:53.109Z,27.70
2022-08-03T08:51:21.972Z,28.00
2022-08-03T08:53:53.679Z,28.10
2022-08-03T08:56:25.351Z,28.10
2022-08-03T08:59:01.161Z,28.20
2022-08-03T09:01:28.587Z,28.10
2022-08-03T09:03:55.875Z,28.10
2022-08-03T09:06:24.013Z,28.40
2022-08-03T09:08:51.021Z,28.30
2022-08-03T09:11:51.716Z,28.50
2022-08-03T09:14:11.335Z,28.80
2022-08-03T09:17:02.159Z,28.60
2022-08-03T09:19:31.375Z,28.30
2022-08-03T09:22:10.934Z,28.40
2022-08-03T09:24:41.588Z,28.60
2022-08-03T09:27:13.570Z,28.50
2022-08-03T09:29:40.611Z,28.50
2022-08-03T09:32:07.679Z,28.70
2022-08-03T09:34:34.811Z,28.80
2022-08-03T09:37:01.781Z,29.00
2022-08-03T09:39:40.782Z,29.20
2022-08-03T09:42:11.137Z,29.20
2022-08-03T09:44:46.941Z,29.30
2022-08-03T09:47:17.428Z,29.50
2022-08-03T09:50:06.103Z,29.60
2022-08-03T09:52:52.071Z,29.50
2022-08-03T09:56:34.643Z,29.70
2022-08-03T09:58:10.871Z,29.50
2022-08-03T10:01:04.282Z,29.70
2022-08-03T10:03:36.099Z,30.10
2022-08-03T10:06:23.062Z,30.00
2022-08-03T10:09:25.237Z,30.00
2022-08-03T10:11:52.778Z,30.40
2022-08-03T10:14:20.308Z,30.40
2022-08-03T10:16:48.370Z,30.40
2022-08-03T10:19:16.578Z,30.50
2022-08-03T10:21:51.386Z,30.50
2022-08-03T10:24:27.399Z,30.40
2022-08-03T10:27:07.155Z,30.30
2022-08-03T10:29:45.926Z,30.40
2022-08-03T10:32:31.823Z,30.50
2022-08-03T10:35:20.501Z,30.80
2022-08-03T10:37:59.723Z,31.00
2022-08-03T10:40:47.994Z,31.30
2022-08-03T10:43:30.901Z,31.50
2022-08-03T10:45:58.979Z,31.50
2022-08-03T10:48:26.715Z,31.40
2022-08-03T10:50:53.929Z,31.00
2022-08-03T10:53:47.738Z,31.00
2022-08-03T10:56:54.323Z,31.20
2022-08-03T10:59:46.460Z,31.40
2022-08-03T11:02:14.947Z,31.40
2022-08-03T11:04:42.963Z,31.40
2022-08-03T11:07:25.708Z,31.70
2022-08-03T11:09:55.548Z,31.80
2022-08-03T11:12:32.203Z,31.80
2022-08-03T11:15:07.780Z,32.10
2022-08-03T11:17:46.820Z,32.30
2022-08-03T11:21:00.335Z,32.60
2022-08-03T11:24:02.850Z,32.80
2022-08-03T11:26:33.002Z,32.80
2022-08-03T11:29:30.309Z,33.00
2022-08-03T11:31:57.756Z,32.90
2022-08-03T11:34:25.064Z,32.90
2022-08-03T11:37:26.359Z,32.80
2022-08-03T11:39:56.994Z,32.80
2022-08-03T11:42:27.574Z,32.70
2022-08-03T11:44:57.374Z,32.90
2022-08-03T11:47:29.967Z,32.90
2022-08-03T11:50:02.152Z,32.90
2022-08-03T11:52:38.248Z,32.90
2022-08-03T11:55:11.231Z,33.10
2022-08-03T11:59:12.828Z,33.30
2022-08-03T12:00:32.284Z,33.30
2022-08-03T12:03:13.618Z,33.20
2022-08-03T12:05:53.606Z,33.30
2022-08-03T12:08:27.830Z,33.60
2022-08-03T12:10:57.276Z,33.30
2022-08-03T12:14:26.826Z,33.50
2022-08-03T12:16:19.621Z,33.40
2022-08-03T12:19:01.850Z,33.50
2022-08-03T12:21:30.245Z,33.40
2022-08-03T12:24:03.743Z,33.40
2022-08-03T12:26:52.244Z,32.90
2022-08-03T12:29:27.227Z,32.60
2022-08-03T12:31:56.153Z,33.10
2022-08-03T12:34:23.332Z,33.10
2022-08-03T12:37:00.078Z,32.90
2022-08-03T12:39:30.960Z,33.10
2022-08-03T12:41:58.182Z,33.20
2022-08-03T12:44:35.944Z,33.50
2022-08-03T12:47:06.876Z,33.80
2022-08-03T12:49:52.514Z,33.90
2022-08-03T12:52:22.347Z,33.80
2022-08-03T12:54:57.327Z,34.00
2022-08-03T12:57:25.025Z,34.40
2022-08-03T12:59:55.887Z,34.80
2022-08-03T13:02:27.293Z,34.90
2022-08-03T13:04:54.982Z,34.70
2022-08-03T13:07:23.313Z,34.00
2022-08-03T13:09:55.411Z,33.40
2022-08-03T13:12:28.667Z,33.40
2022-08-03T13:14:58.661Z,33.60
2022-08-03T13:17:27.226Z,33.70
2022-08-03T13:19:54.939Z,34.00
2022-08-03T13:22:30.842Z,34.20
2022-08-03T13:24:58.269Z,34.00
2022-08-03T13:28:04.230Z,34.00
2022-08-03T13:30:13.949Z,34.10
2022-08-03T13:32:49.673Z,34.00
2022-08-03T13:35:20.092Z,34.00
2022-08-03T13:37:47.756Z,34.00
2022-08-03T13:40:15.967Z,33.60
2022-08-03T13:42:44.034Z,33.40
2022-08-03T13:45:11.525Z,33.90
2022-08-03T13:47:41.181Z,34.30
2022-08-03T13:50:08.438Z,34.60
2022-08-03T13:52:36.533Z,34.80
2022-08-03T13:55:06.700Z,34.80
2022-08-03T13:58:02.873Z,34.80
2022-08-03T14:00:29.003Z,34.50
2022-08-03T14:03:05.348Z,34.20
2022-08-03T14:05:38.731Z,34.20
2022-08-03T14:08:07.425Z,34.20
2022-08-03T14:10:40.755Z,34.00
2022-08-03T14:13:08.608Z,33.70
2022-08-03T14:15:37.666Z,34.00
2022-08-03T14:18:15.726Z,34.10
2022-08-03T14:20:50.195Z,33.80
2022-08-03T14:23:19.273Z,33.60
2022-08-03T14:25:51.460Z,33.70
2022-08-03T14:28:24.698Z,34.10
2022-08-03T14:30:53.799Z,34.50
2022-08-03T14:33:20.928Z,34.50
2022-08-03T14:35:48.961Z,34.40
2022-08-03T14:38:16.573Z,34.30
2022-08-03T14:40:44.423Z,34.30
2022-08-03T14:43:11.361Z,34.50
2022-08-03T14:45:40.232Z,34.40
2022-08-03T14:50:32.161Z,34.20
2022-08-03T14:50:55.348Z,34.00
2022-08-03T14:53:22.607Z,33.80
2022-08-03T14:55:51.923Z,33.50
2022-08-03T14:58:25.228Z,33.40
2022-08-03T15:00:55.941Z,33.30
2022-08-03T15:03:24.962Z,33.20
2022-08-03T15:05:56.846Z,33.30
2022-08-03T15:08:25.717Z,33.50
2022-08-03T15:10:54.400Z,33.60
2022-08-03T15:13:21.509Z,33.70
2022-08-03T15:15:49.771Z,33.70
2022-08-03T15:18:16.786Z,33.70
2022-08-03T15:20:45.806Z,33.60
2022-08-03T15:23:14.785Z,33.50
2022-08-03T15:26:31.583Z,33.70
2022-08-03T15:28:30.555Z,33.80
2022-08-03T15:30:57.520Z,33.60
2022-08-03T15:33:24.470Z,33.60
2022-08-03T15:35:51.760Z,33.50
2022-08-03T15:38:18.872Z,33.60
2022-08-03T15:40:45.927Z,33.50
2022-08-03T15:43:12.855Z,33.40
2022-08-03T15:45:40.657Z,33.40
2022-08-03T15:48:09.172Z,33.30
2022-08-03T15:50:36.235Z,33.30
2022-08-03T15:53:03.835Z,33.40
2022-08-03T15:55:31.504Z,33.40
2022-08-03T15:58:59.573Z,33.50
2022-08-03T16:00:45.580Z,33.50
2022-08-03T16:03:12.521Z,33.50
2022-08-03T16:05:39.588Z,33.60
2022-08-03T16:08:11.675Z,33.70
2022-08-03T16:10:40.689Z,33.70
2022-08-03T16:13:08.256Z,33.60
2022-08-03T16:15:38.396Z,33.40
2022-08-03T16:18:07.035Z,33.30
2022-08-03T16:20:35.295Z,33.30
2022-08-03T16:23:10.809Z,33.40
2022-08-03T16:25:40.484Z,33.50
2022-08-03T16:28:13.612Z,33.40
2022-08-03T16:30:43.786Z,33.50
2022-08-03T16:33:17.296Z,33.40
2022-08-03T16:35:46.854Z,33.20
2022-08-03T16:38:18.349Z,33.00
2022-08-03T16:40:51.558Z,32.90
2022-08-03T16:43:20.454Z,32.70
2022-08-03T16:45:51.024Z,32.60
2022-08-03T16:48:19.077Z,32.50
2022-08-03T16:50:46.234Z,32.50
2022-08-03T16:53:16.746Z,32.40
2022-08-03T16:55:53.817Z,32.40
2022-08-03T16:58:41.421Z,32.50
2022-08-03T17:01:22.194Z,32.60
2022-08-03T17:04:02.341Z,32.70
2022-08-03T17:06:35.336Z,32.80
2022-08-03T17:09:08.967Z,32.90
2022-08-03T17:11:47.078Z,33.00
2022-08-03T17:14:17.163Z,33.00
2022-08-03T17:16:52.403Z,32.90
2022-08-03T17:19:47.250Z,32.90
2022-08-03T17:22:19.391Z,32.80
2022-08-03T17:24:52.378Z,32.90
2022-08-03T17:28:50.747Z,32.80
2022-08-03T17:30:15.886Z,32.80
2022-08-03T17:32:56.947Z,32.50
2022-08-03T17:35:36.479Z,32.40
2022-08-03T17:38:11.908Z,32.30
2022-08-03T17:40:48.229Z,32.20
2022-08-03T17:44:12.709Z,32.10
2022-08-03T17:46:07.316Z,32.00
2022-08-03T17:48:41.569Z,31.90
2022-08-03T17:51:20.465Z,31.80
2022-08-03T17:54:06.053Z,31.60
2022-08-03T17:57:22.484Z,31.30
2022-08-03T18:00:27.187Z,31.20
2022-08-03T18:03:16.153Z,31.00
2022-08-03T18:06:10.540Z,30.80
2022-08-03T18:08:48.669Z,30.70
2022-08-03T18:11:21.792Z,30.40
2022-08-03T18:17:55.217Z,30.10
2022-08-03T18:20:33.134Z,29.90
2022-08-03T18:23:07.975Z,29.80
2022-08-03T18:25:45.162Z,29.70
2022-08-03T18:28:18.834Z,29.70
2022-08-03T18:30:53.037Z,29.60
2022-08-03T18:34:20.338Z,29.60
2022-08-03T18:36:22.012Z,29.50
2022-08-03T18:38:59.846Z,29.50
2022-08-03T18:41:32.099Z,29.40
2022-08-03T18:44:07.862Z,29.30
2022-08-03T18:47:01.544Z,29.30
2022-08-03T18:50:12.012Z,29.30
2022-08-03T18:53:15.677Z,29.20
2022-08-03T18:56:02.329Z,29.00
2022-08-03T18:58:52.426Z,28.90
2022-08-03T19:02:00.882Z,28.70
2022-08-03T19:05:06.466Z,28.60
2022-08-03T19:07:36.510Z,28.50
2022-08-03T19:10:11.100Z,28.40
2022-08-03T19:12:51.612Z,28.20
2022-08-03T19:15:36.429Z,28.10
2022-08-03T19:18:08.839Z,28.00
2022-08-03T19:20:38.303Z,27.90
2022-08-03T19:23:06.649Z,27.70
2022-08-03T19:25:40.256Z,27.70
2022-08-03T19:28:08.850Z,27.50
2022-08-03T19:30:40.161Z,27.40
2022-08-03T19:33:11.239Z,27.30
2022-08-03T19:35:57.459Z,27.20
2022-08-03T19:38:27.453Z,27.00
2022-08-03T19:41:02.464Z,26.90
2022-08-03T19:43:52.654Z,26.80
2022-08-03T19:46:30.061Z,26.70
2022-08-03T19:49:15.178Z,26.60
2022-08-03T19:54:53.840Z,26.50
2022-08-03T19:57:25.588Z,26.40
2022-08-03T19:59:56.189Z,26.30
2022-08-03T20:02:26.579Z,26.10
2022-08-03T20:04:56.549Z,26.00
2022-08-03T20:07:27.874Z,26.00
2022-08-03T20:09:56.465Z,25.90
2022-08-03T20:12:27.559Z,25.90
2022-08-03T20:14:59.881Z,25.80
2022-08-03T20:17:55.500Z,25.70
2022-08-03T20:20:25.422Z,25.70
2022-08-03T20:22:59.564Z,25.50
2022-08-03T20:25:57.413Z,25.40
2022-08-03T20:28:50.379Z,25.30
2022-08-03T20:31:21.623Z,25.20
2022-08-03T20:33:50.931Z,25.10
2022-08-03T20:36:19.088Z,25.00
2022-08-03T20:38:48.175Z,25.00
2022-08-03T20:41:17.169Z,24.90
2022-08-03T20:43:45.372Z,24.80
2022-08-03T20:46:31.963Z,24.70
2022-08-03T20:49:04.709Z,24.70
2022-08-03T20:51:49.566Z,24.60
2022-08-03T20:54:29.134Z,24.50
2022-08-03T20:57:00.214Z,24.50
2022-08-03T20:59:47.145Z,24.50
2022-08-03T21:02:30.365Z,24.40
2022-08-03T21:05:08.529Z,24.30
2022-08-03T21:08:06.920Z,24.20
2022-08-03T21:10:42.210Z,24.10
2022-08-03T21:13:03.089Z,26.60
2022-08-03T21:13:05.226Z,30.20
2022-08-03T21:16:06.701Z,23.90
2022-08-03T21:18:57.918Z,23.80
2022-08-03T21:21:30.993Z,23.80
2022-08-03T21:24:00.715Z,23.80
2022-08-03T21:26:32.541Z,23.80
2022-08-03T21:29:03.594Z,23.70
2022-08-03T21:31:30.603Z,23.60
2022-08-03T21:34:04.858Z,23.50
2022-08-03T21:36:35.776Z,23.40
2022-08-03T21:39:07.231Z,23.40
2022-08-03T21:41:35.996Z,23.30
2022-08-03T21:44:07.410Z,23.30
2022-08-03T21:46:37.277Z,23.20
2022-08-03T21:50:07.750Z,23.20
2022-08-03T21:51:59.741Z,23.20
2022-08-03T21:54:38.793Z,23.10
2022-08-03T21:57:20.536Z,23.00
2022-08-03T21:59:54.841Z,22.90
2022-08-03T22:02:32.238Z,22.90
2022-08-03T22:05:05.218Z,22.80
2022-08-03T22:07:33.968Z,22.70
2022-08-03T22:10:05.018Z,22.70
2022-08-03T22:12:32.705Z,22.60
2022-08-03T22:15:02.545Z,22.60
2022-08-03T22:17:55.787Z,22.50
2022-08-03T22:20:21.352Z,22.50
2022-08-03T22:22:56.088Z,22.40
2022-08-03T22:25:32.827Z,22.40
2022-08-03T22:28:10.033Z,22.30
2022-08-03T22:30:38.789Z,22.30
2022-08-03T22:33:11.182Z,22.20
2022-08-03T22:35:51.628Z,22.10
2022-08-03T22:38:19.039Z,22.10
2022-08-03T22:40:49.817Z,22.00
2022-08-03T22:43:17.540Z,22.00
2022-08-03T22:46:09.248Z,21.90
2022-08-03T22:48:40.657Z,21.90
2022-08-03T22:51:09.155Z,21.90
2022-08-03T22:53:37.266Z,21.80
2022-08-03T22:56:04.573Z,21.80
2022-08-03T22:58:31.500Z,21.80
2022-08-03T23:01:06.413Z,21.70
2022-08-03T23:04:00.616Z,21.70
2022-08-03T23:06:40.785Z,21.70
2022-08-03T23:09:13.656Z,21.60
2022-08-03T23:11:45.967Z,21.60
2022-08-03T23:14:15.879Z,21.60
2022-08-03T23:16:45.367Z,21.50
2022-08-03T23:19:17.402Z,21.50
2022-08-03T23:22:03.599Z,21.40
2022-08-03T23:24:38.639Z,21.30
2022-08-03T23:27:08.121Z,21.30
2022-08-03T23:29:42.960Z,21.10
2022-08-03T23:32:12.329Z,21.10
2022-08-03T23:34:58.785Z,21.10
2022-08-03T23:37:26.929Z,21.00
2022-08-03T23:39:57.082Z,21.10
2022-08-03T23:42:24.343Z,21.00
2022-08-03T23:44:58.329Z,21.00
2022-08-03T23:47:46.910Z,21.00
2022-08-03T23:50:15.243Z,20.90
2022-08-03T23:53:03.346Z,20.80
2022-08-03T23:55:51.177Z,20.80
2022-08-03T23:58:51.524Z,20.80
